sensor_id;sensor_type;location;lat;lon;timestamp;P1;durP1;ratioP1;P2;durP2;ratioP2
16963;SDS011;8598;50.508;10.436;2023-02-15T00:02:00;23.70;;;11.17;;
16963;SDS011;8598;50.508;10.436;2023-02-15T00:04:26;25.50;;;12.40;;
16963;SDS011;8598;50.508;10.436;2023-02-15T00:07:12;27.53;;;11.17;;
16963;SDS011;8598;50.508;10.436;2023-02-15T00:09:40;21.83;;;10.87;;
16963;SDS011;8598;50.508;10.436;2023-02-15T00:12:06;21.67;;;11.07;;
16963;SDS011;8598;50.508;10.436;2023-02-15T00:14:34;21.77;;;11.10;;
16963;SDS011;8598;50.508;10.436;2023-02-15T00:17:01;23.50;;;11.40;;
16963;SDS011;8598;50.508;10.436;2023-02-15T00:19:27;22.23;;;11.27;;
16963;SDS011;8598;50.508;10.436;2023-02-15T00:21:54;22.70;;;9.80;;
16963;SDS011;8598;50.508;10.436;2023-02-15T00:24:22;21.50;;;11.00;;
16963;SDS011;8598;50.508;10.436;2023-02-15T00:26:49;21.57;;;10.77;;
16963;SDS011;8598;50.508;10.436;2023-02-15T00:29:16;22.03;;;11.23;;
16963;SDS011;8598;50.508;10.436;2023-02-15T00:31:44;31.50;;;12.07;;
16963;SDS011;8598;50.508;10.436;2023-02-15T00:34:11;48.73;;;12.50;;
16963;SDS011;8598;50.508;10.436;2023-02-15T00:36:39;47.87;;;12.03;;
16963;SDS011;8598;50.508;10.436;2023-02-15T00:39:06;36.07;;;11.03;;
16963;SDS011;8598;50.508;10.436;2023-02-15T00:41:34;27.53;;;10.13;;
16963;SDS011;8598;50.508;10.436;2023-02-15T00:44:00;24.37;;;10.73;;
16963;SDS011;8598;50.508;10.436;2023-02-15T00:46:27;43.60;;;12.00;;
16963;SDS011;8598;50.508;10.436;2023-02-15T00:48:53;29.20;;;12.13;;
16963;SDS011;8598;50.508;10.436;2023-02-15T00:51:20;32.20;;;11.77;;
16963;SDS011;8598;50.508;10.436;2023-02-15T00:53:47;27.13;;;10.97;;
16963;SDS011;8598;50.508;10.436;2023-02-15T00:56:14;25.17;;;11.80;;
16963;SDS011;8598;50.508;10.436;2023-02-15T00:58:42;33.07;;;12.77;;
16963;SDS011;8598;50.508;10.436;2023-02-15T01:01:09;26.97;;;10.90;;
16963;SDS011;8598;50.508;10.436;2023-02-15T01:03:38;23.07;;;10.23;;
16963;SDS011;8598;50.508;10.436;2023-02-15T01:06:06;21.00;;;10.87;;
16963;SDS011;8598;50.508;10.436;2023-02-15T01:08:33;22.80;;;10.37;;
16963;SDS011;8598;50.508;10.436;2023-02-15T01:11:02;23.93;;;11.20;;
16963;SDS011;8598;50.508;10.436;2023-02-15T01:13:30;24.23;;;10.73;;
16963;SDS011;8598;50.508;10.436;2023-02-15T01:15:58;22.00;;;11.00;;
16963;SDS011;8598;50.508;10.436;2023-02-15T01:18:24;29.50;;;11.57;;
16963;SDS011;8598;50.508;10.436;2023-02-15T01:20:51;23.10;;;11.03;;
16963;SDS011;8598;50.508;10.436;2023-02-15T01:23:18;33.03;;;11.33;;
16963;SDS011;8598;50.508;10.436;2023-02-15T01:25:45;30.17;;;11.93;;
16963;SDS011;8598;50.508;10.436;2023-02-15T01:28:11;18.00;;;10.23;;
16963;SDS011;8598;50.508;10.436;2023-02-15T01:30:38;24.83;;;11.13;;
16963;SDS011;8598;50.508;10.436;2023-02-15T01:33:08;22.70;;;10.70;;
16963;SDS011;8598;50.508;10.436;2023-02-15T01:35:42;23.83;;;11.07;;
16963;SDS011;8598;50.508;10.436;2023-02-15T01:38:09;29.13;;;11.30;;
16963;SDS011;8598;50.508;10.436;2023-02-15T01:40:36;30.30;;;11.17;;
16963;SDS011;8598;50.508;10.436;2023-02-15T01:43:07;31.80;;;11.23;;
16963;SDS011;8598;50.508;10.436;2023-02-15T01:45:36;33.20;;;11.57;;
16963;SDS011;8598;50.508;10.436;2023-02-15T01:48:03;41.07;;;11.50;;
16963;SDS011;8598;50.508;10.436;2023-02-15T01:50:37;32.53;;;10.50;;
16963;SDS011;8598;50.508;10.436;2023-02-15T01:53:08;26.60;;;12.17;;
16963;SDS011;8598;50.508;10.436;2023-02-15T01:55:43;24.67;;;11.27;;
16963;SDS011;8598;50.508;10.436;2023-02-15T01:58:13;27.17;;;12.30;;
16963;SDS011;8598;50.508;10.436;2023-02-15T02:00:40;22.37;;;10.73;;
16963;SDS011;8598;50.508;10.436;2023-02-15T02:03:06;21.03;;;10.40;;
16963;SDS011;8598;50.508;10.436;2023-02-15T02:05:33;22.57;;;10.70;;
16963;SDS011;8598;50.508;10.436;2023-02-15T02:08:01;24.53;;;11.47;;
16963;SDS011;8598;50.508;10.436;2023-02-15T02:10:28;26.77;;;10.17;;
16963;SDS011;8598;50.508;10.436;2023-02-15T02:12:56;33.60;;;11.07;;
16963;SDS011;8598;50.508;10.436;2023-02-15T02:15:27;25.20;;;11.63;;
16963;SDS011;8598;50.508;10.436;2023-02-15T02:18:03;22.03;;;10.17;;
16963;SDS011;8598;50.508;10.436;2023-02-15T02:26:55;29.83;;;10.03;;
16963;SDS011;8598;50.508;10.436;2023-02-15T02:35:42;30.53;;;10.67;;
16963;SDS011;8598;50.508;10.436;2023-02-15T02:38:15;22.33;;;10.73;;
16963;SDS011;8598;50.508;10.436;2023-02-15T02:40:52;25.00;;;10.77;;
16963;SDS011;8598;50.508;10.436;2023-02-15T02:43:28;32.03;;;11.33;;
16963;SDS011;8598;50.508;10.436;2023-02-15T02:46:00;28.63;;;10.93;;
16963;SDS011;8598;50.508;10.436;2023-02-15T02:48:32;25.90;;;10.50;;
16963;SDS011;8598;50.508;10.436;2023-02-15T02:51:01;29.40;;;11.30;;
16963;SDS011;8598;50.508;10.436;2023-02-15T02:53:28;43.83;;;9.93;;
16963;SDS011;8598;50.508;10.436;2023-02-15T02:55:57;24.77;;;10.33;;
16963;SDS011;8598;50.508;10.436;2023-02-15T02:58:31;22.17;;;10.20;;
16963;SDS011;8598;50.508;10.436;2023-02-15T03:01:03;21.43;;;10.07;;
16963;SDS011;8598;50.508;10.436;2023-02-15T03:03:34;37.70;;;9.47;;
16963;SDS011;8598;50.508;10.436;2023-02-15T03:06:06;24.97;;;10.87;;
16963;SDS011;8598;50.508;10.436;2023-02-15T03:08:37;30.90;;;11.13;;
16963;SDS011;8598;50.508;10.436;2023-02-15T03:11:08;28.67;;;10.93;;
16963;SDS011;8598;50.508;10.436;2023-02-15T03:13:37;29.20;;;10.80;;
16963;SDS011;8598;50.508;10.436;2023-02-15T03:16:04;32.23;;;10.60;;
16963;SDS011;8598;50.508;10.436;2023-02-15T03:18:50;25.43;;;9.87;;
16963;SDS011;8598;50.508;10.436;2023-02-15T03:21:23;25.60;;;9.90;;
16963;SDS011;8598;50.508;10.436;2023-02-15T03:23:57;24.97;;;11.33;;
16963;SDS011;8598;50.508;10.436;2023-02-15T03:26:28;28.67;;;10.83;;
16963;SDS011;8598;50.508;10.436;2023-02-15T03:28:56;21.57;;;11.00;;
16963;SDS011;8598;50.508;10.436;2023-02-15T03:31:26;27.73;;;11.77;;
16963;SDS011;8598;50.508;10.436;2023-02-15T03:33:57;26.47;;;11.23;;
16963;SDS011;8598;50.508;10.436;2023-02-15T03:36:31;20.43;;;10.17;;
16963;SDS011;8598;50.508;10.436;2023-02-15T03:39:04;28.43;;;11.70;;
16963;SDS011;8598;50.508;10.436;2023-02-15T03:41:39;26.23;;;11.23;;
16963;SDS011;8598;50.508;10.436;2023-02-15T03:44:09;26.57;;;10.40;;
16963;SDS011;8598;50.508;10.436;2023-02-15T03:46:42;26.13;;;11.57;;
16963;SDS011;8598;50.508;10.436;2023-02-15T03:49:14;26.03;;;11.03;;
16963;SDS011;8598;50.508;10.436;2023-02-15T03:51:48;21.70;;;9.83;;
16963;SDS011;8598;50.508;10.436;2023-02-15T03:54:17;22.13;;;10.53;;
16963;SDS011;8598;50.508;10.436;2023-02-15T03:57:00;30.60;;;11.50;;
16963;SDS011;8598;50.508;10.436;2023-02-15T03:59:41;26.20;;;10.43;;
16963;SDS011;8598;50.508;10.436;2023-02-15T04:02:26;22.87;;;11.10;;
16963;SDS011;8598;50.508;10.436;2023-02-15T04:05:02;20.40;;;9.83;;
16963;SDS011;8598;50.508;10.436;2023-02-15T04:07:30;27.47;;;11.57;;
16963;SDS011;8598;50.508;10.436;2023-02-15T04:09:56;20.67;;;10.10;;
16963;SDS011;8598;50.508;10.436;2023-02-15T04:12:40;24.10;;;10.27;;
16963;SDS011;8598;50.508;10.436;2023-02-15T04:15:08;20.37;;;9.90;;
16963;SDS011;8598;50.508;10.436;2023-02-15T04:17:55;23.57;;;10.20;;
16963;SDS011;8598;50.508;10.436;2023-02-15T04:20:22;20.07;;;10.80;;
16963;SDS011;8598;50.508;10.436;2023-02-15T04:23:08;26.47;;;11.03;;
16963;SDS011;8598;50.508;10.436;2023-02-15T04:25:52;25.20;;;10.80;;
16963;SDS011;8598;50.508;10.436;2023-02-15T04:28:18;19.70;;;9.07;;
16963;SDS011;8598;50.508;10.436;2023-02-15T04:30:46;19.77;;;10.53;;
16963;SDS011;8598;50.508;10.436;2023-02-15T04:33:12;21.03;;;10.03;;
16963;SDS011;8598;50.508;10.436;2023-02-15T04:35:39;20.80;;;9.80;;
16963;SDS011;8598;50.508;10.436;2023-02-15T04:38:05;20.70;;;10.10;;
16963;SDS011;8598;50.508;10.436;2023-02-15T04:40:35;24.63;;;10.97;;
16963;SDS011;8598;50.508;10.436;2023-02-15T04:43:01;21.20;;;10.50;;
16963;SDS011;8598;50.508;10.436;2023-02-15T04:45:28;23.43;;;10.80;;
16963;SDS011;8598;50.508;10.436;2023-02-15T04:47:54;24.57;;;10.33;;
16963;SDS011;8598;50.508;10.436;2023-02-15T04:50:21;18.60;;;9.97;;
16963;SDS011;8598;50.508;10.436;2023-02-15T04:52:48;22.57;;;10.27;;
16963;SDS011;8598;50.508;10.436;2023-02-15T04:55:16;24.10;;;9.93;;
16963;SDS011;8598;50.508;10.436;2023-02-15T04:57:42;26.83;;;10.40;;
16963;SDS011;8598;50.508;10.436;2023-02-15T05:00:09;19.80;;;10.23;;
16963;SDS011;8598;50.508;10.436;2023-02-15T05:02:37;14.03;;;7.70;;
16963;SDS011;8598;50.508;10.436;2023-02-15T05:05:03;24.77;;;10.30;;
16963;SDS011;8598;50.508;10.436;2023-02-15T05:07:30;25.23;;;11.70;;
16963;SDS011;8598;50.508;10.436;2023-02-15T05:09:57;22.40;;;10.00;;
16963;SDS011;8598;50.508;10.436;2023-02-15T05:12:25;21.13;;;10.03;;
16963;SDS011;8598;50.508;10.436;2023-02-15T05:14:51;20.07;;;9.03;;
16963;SDS011;8598;50.508;10.436;2023-02-15T05:17:18;18.83;;;9.27;;
16963;SDS011;8598;50.508;10.436;2023-02-15T05:19:44;22.57;;;11.47;;
16963;SDS011;8598;50.508;10.436;2023-02-15T05:22:11;21.20;;;10.97;;
16963;SDS011;8598;50.508;10.436;2023-02-15T05:24:38;16.03;;;8.87;;
16963;SDS011;8598;50.508;10.436;2023-02-15T05:27:22;26.30;;;11.40;;
16963;SDS011;8598;50.508;10.436;2023-02-15T05:30:10;23.60;;;9.83;;
16963;SDS011;8598;50.508;10.436;2023-02-15T05:32:38;20.23;;;9.93;;
16963;SDS011;8598;50.508;10.436;2023-02-15T05:35:05;21.93;;;10.10;;
16963;SDS011;8598;50.508;10.436;2023-02-15T05:37:33;21.47;;;9.83;;
16963;SDS011;8598;50.508;10.436;2023-02-15T05:40:00;21.20;;;9.60;;
16963;SDS011;8598;50.508;10.436;2023-02-15T05:42:26;20.80;;;10.53;;
16963;SDS011;8598;50.508;10.436;2023-02-15T05:44:53;17.50;;;8.43;;
16963;SDS011;8598;50.508;10.436;2023-02-15T05:47:21;18.40;;;8.70;;
16963;SDS011;8598;50.508;10.436;2023-02-15T05:49:47;18.10;;;9.57;;
16963;SDS011;8598;50.508;10.436;2023-02-15T05:52:14;19.77;;;9.37;;
16963;SDS011;8598;50.508;10.436;2023-02-15T05:54:41;23.77;;;10.10;;
16963;SDS011;8598;50.508;10.436;2023-02-15T05:57:07;25.17;;;10.30;;
16963;SDS011;8598;50.508;10.436;2023-02-15T05:59:34;20.47;;;9.77;;
16963;SDS011;8598;50.508;10.436;2023-02-15T06:02:00;30.07;;;11.23;;
16963;SDS011;8598;50.508;10.436;2023-02-15T06:04:28;28.40;;;10.87;;
16963;SDS011;8598;50.508;10.436;2023-02-15T06:06:55;21.67;;;10.53;;
16963;SDS011;8598;50.508;10.436;2023-02-15T06:09:21;29.33;;;10.40;;
16963;SDS011;8598;50.508;10.436;2023-02-15T06:11:48;32.10;;;11.10;;
16963;SDS011;8598;50.508;10.436;2023-02-15T06:14:15;32.97;;;11.73;;
16963;SDS011;8598;50.508;10.436;2023-02-15T06:16:42;21.70;;;10.23;;
16963;SDS011;8598;50.508;10.436;2023-02-15T06:19:08;25.63;;;11.17;;
16963;SDS011;8598;50.508;10.436;2023-02-15T06:21:36;24.40;;;10.23;;
16963;SDS011;8598;50.508;10.436;2023-02-15T06:24:03;27.00;;;10.83;;
16963;SDS011;8598;50.508;10.436;2023-02-15T06:26:30;20.73;;;9.30;;
16963;SDS011;8598;50.508;10.436;2023-02-15T06:28:56;28.67;;;11.70;;
16963;SDS011;8598;50.508;10.436;2023-02-15T06:31:23;27.43;;;10.83;;
16963;SDS011;8598;50.508;10.436;2023-02-15T06:33:50;27.83;;;11.30;;
16963;SDS011;8598;50.508;10.436;2023-02-15T06:36:16;28.60;;;11.00;;
16963;SDS011;8598;50.508;10.436;2023-02-15T06:38:44;24.47;;;10.97;;
16963;SDS011;8598;50.508;10.436;2023-02-15T06:41:11;23.13;;;10.03;;
16963;SDS011;8598;50.508;10.436;2023-02-15T06:43:38;22.37;;;11.57;;
16963;SDS011;8598;50.508;10.436;2023-02-15T06:46:04;20.07;;;9.50;;
16963;SDS011;8598;50.508;10.436;2023-02-15T06:48:31;24.67;;;8.90;;
16963;SDS011;8598;50.508;10.436;2023-02-15T06:50:57;25.80;;;10.70;;
16963;SDS011;8598;50.508;10.436;2023-02-15T06:53:24;22.27;;;9.93;;
16963;SDS011;8598;50.508;10.436;2023-02-15T06:55:52;23.03;;;10.83;;
16963;SDS011;8598;50.508;10.436;2023-02-15T06:58:18;27.80;;;10.70;;
16963;SDS011;8598;50.508;10.436;2023-02-15T07:00:45;20.50;;;9.97;;
16963;SDS011;8598;50.508;10.436;2023-02-15T07:03:13;24.77;;;9.13;;
16963;SDS011;8598;50.508;10.436;2023-02-15T07:05:40;18.70;;;8.77;;
16963;SDS011;8598;50.508;10.436;2023-02-15T07:08:06;22.63;;;9.13;;
16963;SDS011;8598;50.508;10.436;2023-02-15T07:10:33;30.20;;;8.80;;
16963;SDS011;8598;50.508;10.436;2023-02-15T07:13:01;21.00;;;9.03;;
16963;SDS011;8598;50.508;10.436;2023-02-15T07:15:26;21.67;;;9.00;;
16963;SDS011;8598;50.508;10.436;2023-02-15T07:17:53;27.40;;;12.87;;
16963;SDS011;8598;50.508;10.436;2023-02-15T07:20:20;22.20;;;9.60;;
16963;SDS011;8598;50.508;10.436;2023-02-15T07:22:48;21.73;;;9.30;;
16963;SDS011;8598;50.508;10.436;2023-02-15T07:25:16;19.97;;;10.03;;
16963;SDS011;8598;50.508;10.436;2023-02-15T07:27:43;20.50;;;8.43;;
16963;SDS011;8598;50.508;10.436;2023-02-15T07:30:12;18.17;;;8.90;;
16963;SDS011;8598;50.508;10.436;2023-02-15T07:32:41;18.70;;;7.93;;
16963;SDS011;8598;50.508;10.436;2023-02-15T07:35:22;21.13;;;8.47;;
16963;SDS011;8598;50.508;10.436;2023-02-15T07:37:49;23.67;;;9.17;;
16963;SDS011;8598;50.508;10.436;2023-02-15T07:40:15;20.77;;;8.80;;
16963;SDS011;8598;50.508;10.436;2023-02-15T07:42:42;21.00;;;8.80;;
16963;SDS011;8598;50.508;10.436;2023-02-15T07:45:09;17.17;;;9.20;;
16963;SDS011;8598;50.508;10.436;2023-02-15T07:47:37;25.73;;;10.53;;
16963;SDS011;8598;50.508;10.436;2023-02-15T07:50:04;21.53;;;9.20;;
16963;SDS011;8598;50.508;10.436;2023-02-15T07:52:31;15.03;;;7.90;;
16963;SDS011;8598;50.508;10.436;2023-02-15T07:54:58;21.90;;;8.93;;
16963;SDS011;8598;50.508;10.436;2023-02-15T07:57:24;19.53;;;8.67;;
16963;SDS011;8598;50.508;10.436;2023-02-15T07:59:51;18.43;;;7.67;;
16963;SDS011;8598;50.508;10.436;2023-02-15T08:02:17;16.50;;;8.60;;
16963;SDS011;8598;50.508;10.436;2023-02-15T08:04:45;18.07;;;8.17;;
16963;SDS011;8598;50.508;10.436;2023-02-15T08:07:12;16.13;;;8.37;;
16963;SDS011;8598;50.508;10.436;2023-02-15T08:09:38;18.20;;;8.33;;
16963;SDS011;8598;50.508;10.436;2023-02-15T08:12:05;16.83;;;7.97;;
16963;SDS011;8598;50.508;10.436;2023-02-15T08:14:32;18.37;;;7.87;;
16963;SDS011;8598;50.508;10.436;2023-02-15T08:16:59;24.30;;;8.43;;
16963;SDS011;8598;50.508;10.436;2023-02-15T08:19:28;18.13;;;7.90;;
16963;SDS011;8598;50.508;10.436;2023-02-15T08:21:59;17.47;;;8.73;;
16963;SDS011;8598;50.508;10.436;2023-02-15T08:24:27;14.73;;;6.83;;
16963;SDS011;8598;50.508;10.436;2023-02-15T08:26:54;14.93;;;7.53;;
16963;SDS011;8598;50.508;10.436;2023-02-15T08:29:22;16.30;;;7.00;;
16963;SDS011;8598;50.508;10.436;2023-02-15T08:31:52;13.17;;;6.93;;
16963;SDS011;8598;50.508;10.436;2023-02-15T08:34:20;13.60;;;7.07;;
16963;SDS011;8598;50.508;10.436;2023-02-15T08:36:47;15.47;;;6.70;;
16963;SDS011;8598;50.508;10.436;2023-02-15T08:39:15;12.93;;;6.73;;
16963;SDS011;8598;50.508;10.436;2023-02-15T08:41:42;12.73;;;6.77;;
16963;SDS011;8598;50.508;10.436;2023-02-15T08:44:10;13.77;;;7.27;;
16963;SDS011;8598;50.508;10.436;2023-02-15T08:46:39;13.43;;;7.33;;
16963;SDS011;8598;50.508;10.436;2023-02-15T08:49:08;13.80;;;7.37;;
16963;SDS011;8598;50.508;10.436;2023-02-15T08:51:36;12.73;;;7.47;;
16963;SDS011;8598;50.508;10.436;2023-02-15T08:54:05;17.70;;;10.00;;
16963;SDS011;8598;50.508;10.436;2023-02-15T08:56:35;17.53;;;10.60;;
16963;SDS011;8598;50.508;10.436;2023-02-15T08:59:03;21.97;;;9.00;;
16963;SDS011;8598;50.508;10.436;2023-02-15T09:01:31;16.17;;;8.87;;
16963;SDS011;8598;50.508;10.436;2023-02-15T09:03:59;14.60;;;8.47;;
16963;SDS011;8598;50.508;10.436;2023-02-15T09:06:29;15.07;;;7.77;;
16963;SDS011;8598;50.508;10.436;2023-02-15T09:08:56;16.53;;;9.33;;
16963;SDS011;8598;50.508;10.436;2023-02-15T09:11:24;30.63;;;17.83;;
16963;SDS011;8598;50.508;10.436;2023-02-15T09:13:53;29.30;;;17.63;;
16963;SDS011;8598;50.508;10.436;2023-02-15T09:16:22;16.77;;;9.60;;
16963;SDS011;8598;50.508;10.436;2023-02-15T09:18:50;20.17;;;11.93;;
16963;SDS011;8598;50.508;10.436;2023-02-15T09:21:18;17.27;;;10.17;;
16963;SDS011;8598;50.508;10.436;2023-02-15T09:23:47;14.43;;;8.17;;
16963;SDS011;8598;50.508;10.436;2023-02-15T09:26:15;21.73;;;12.93;;
16963;SDS011;8598;50.508;10.436;2023-02-15T09:28:43;28.40;;;20.07;;
16963;SDS011;8598;50.508;10.436;2023-02-15T09:31:11;22.60;;;13.50;;
16963;SDS011;8598;50.508;10.436;2023-02-15T09:33:40;21.50;;;14.13;;
16963;SDS011;8598;50.508;10.436;2023-02-15T09:36:13;21.43;;;13.37;;
16963;SDS011;8598;50.508;10.436;2023-02-15T09:38:42;14.83;;;9.33;;
16963;SDS011;8598;50.508;10.436;2023-02-15T09:41:16;16.17;;;9.53;;
16963;SDS011;8598;50.508;10.436;2023-02-15T09:43:59;13.97;;;8.77;;
16963;SDS011;8598;50.508;10.436;2023-02-15T09:46:44;38.03;;;20.27;;
16963;SDS011;8598;50.508;10.436;2023-02-15T09:49:43;22.07;;;13.07;;
16963;SDS011;8598;50.508;10.436;2023-02-15T09:52:39;14.53;;;8.93;;
16963;SDS011;8598;50.508;10.436;2023-02-15T09:55:17;14.13;;;9.20;;
16963;SDS011;8598;50.508;10.436;2023-02-15T09:57:52;18.03;;;10.23;;
16963;SDS011;8598;50.508;10.436;2023-02-15T10:00:24;17.80;;;9.17;;
16963;SDS011;8598;50.508;10.436;2023-02-15T10:03:04;16.27;;;9.40;;
16963;SDS011;8598;50.508;10.436;2023-02-15T10:05:47;12.13;;;7.60;;
16963;SDS011;8598;50.508;10.436;2023-02-15T10:08:32;12.63;;;7.50;;
16963;SDS011;8598;50.508;10.436;2023-02-15T10:11:20;18.00;;;8.37;;
16963;SDS011;8598;50.508;10.436;2023-02-15T10:14:20;17.07;;;9.27;;
16963;SDS011;8598;50.508;10.436;2023-02-15T10:17:04;14.50;;;8.27;;
16963;SDS011;8598;50.508;10.436;2023-02-15T10:19:41;15.10;;;8.47;;
16963;SDS011;8598;50.508;10.436;2023-02-15T10:22:17;17.17;;;9.50;;
16963;SDS011;8598;50.508;10.436;2023-02-15T10:27:44;13.10;;;8.17;;
16963;SDS011;8598;50.508;10.436;2023-02-15T10:30:13;16.87;;;8.73;;
16963;SDS011;8598;50.508;10.436;2023-02-15T10:32:43;17.20;;;9.67;;
16963;SDS011;8598;50.508;10.436;2023-02-15T10:35:19;16.83;;;9.73;;
16963;SDS011;8598;50.508;10.436;2023-02-15T10:37:53;19.50;;;11.97;;
16963;SDS011;8598;50.508;10.436;2023-02-15T10:40:31;17.23;;;10.57;;
16963;SDS011;8598;50.508;10.436;2023-02-15T10:43:13;15.83;;;9.70;;
16963;SDS011;8598;50.508;10.436;2023-02-15T10:45:54;19.70;;;11.10;;
16963;SDS011;8598;50.508;10.436;2023-02-15T10:51:37;15.27;;;9.00;;
16963;SDS011;8598;50.508;10.436;2023-02-15T10:54:12;15.50;;;8.17;;
16963;SDS011;8598;50.508;10.436;2023-02-15T10:56:49;13.60;;;8.23;;
16963;SDS011;8598;50.508;10.436;2023-02-15T10:59:29;16.43;;;8.83;;
16963;SDS011;8598;50.508;10.436;2023-02-15T11:02:04;14.00;;;8.37;;
16963;SDS011;8598;50.508;10.436;2023-02-15T11:04:40;14.00;;;8.33;;
16963;SDS011;8598;50.508;10.436;2023-02-15T11:07:29;16.17;;;8.97;;
16963;SDS011;8598;50.508;10.436;2023-02-15T11:10:05;18.43;;;10.90;;
16963;SDS011;8598;50.508;10.436;2023-02-15T11:12:39;20.67;;;12.10;;
16963;SDS011;8598;50.508;10.436;2023-02-15T11:15:11;18.67;;;10.10;;
16963;SDS011;8598;50.508;10.436;2023-02-15T11:17:43;20.30;;;9.87;;
16963;SDS011;8598;50.508;10.436;2023-02-15T11:20:16;20.73;;;10.33;;
16963;SDS011;8598;50.508;10.436;2023-02-15T11:22:50;17.87;;;8.77;;
16963;SDS011;8598;50.508;10.436;2023-02-15T11:25:19;20.37;;;9.97;;
16963;SDS011;8598;50.508;10.436;2023-02-15T11:27:50;17.20;;;8.80;;
16963;SDS011;8598;50.508;10.436;2023-02-15T11:30:19;16.87;;;10.13;;
16963;SDS011;8598;50.508;10.436;2023-02-15T11:32:47;17.57;;;9.93;;
16963;SDS011;8598;50.508;10.436;2023-02-15T11:35:18;23.20;;;10.07;;
16963;SDS011;8598;50.508;10.436;2023-02-15T11:37:53;17.07;;;9.67;;
16963;SDS011;8598;50.508;10.436;2023-02-15T11:40:25;17.43;;;9.27;;
16963;SDS011;8598;50.508;10.436;2023-02-15T11:42:55;17.80;;;9.60;;
16963;SDS011;8598;50.508;10.436;2023-02-15T11:45:26;18.43;;;10.37;;
16963;SDS011;8598;50.508;10.436;2023-02-15T11:47:54;23.33;;;10.83;;
16963;SDS011;8598;50.508;10.436;2023-02-15T11:50:23;21.83;;;10.67;;
16963;SDS011;8598;50.508;10.436;2023-02-15T11:52:54;16.57;;;9.53;;
16963;SDS011;8598;50.508;10.436;2023-02-15T11:55:24;19.90;;;10.50;;
16963;SDS011;8598;50.508;10.436;2023-02-15T11:57:54;20.13;;;10.60;;
16963;SDS011;8598;50.508;10.436;2023-02-15T12:00:29;14.67;;;9.27;;
16963;SDS011;8598;50.508;10.436;2023-02-15T12:03:01;16.73;;;9.27;;
16963;SDS011;8598;50.508;10.436;2023-02-15T12:05:33;18.93;;;10.00;;
16963;SDS011;8598;50.508;10.436;2023-02-15T12:08:08;18.40;;;10.33;;
16963;SDS011;8598;50.508;10.436;2023-02-15T12:10:40;17.60;;;10.00;;
16963;SDS011;8598;50.508;10.436;2023-02-15T12:13:17;14.77;;;9.37;;
16963;SDS011;8598;50.508;10.436;2023-02-15T12:15:46;15.90;;;9.43;;
16963;SDS011;8598;50.508;10.436;2023-02-15T12:18:24;15.37;;;9.40;;
16963;SDS011;8598;50.508;10.436;2023-02-15T12:21:00;21.20;;;10.83;;
16963;SDS011;8598;50.508;10.436;2023-02-15T12:23:31;15.27;;;8.57;;
16963;SDS011;8598;50.508;10.436;2023-02-15T12:25:58;17.53;;;9.90;;
16963;SDS011;8598;50.508;10.436;2023-02-15T12:28:26;16.80;;;10.07;;
16963;SDS011;8598;50.508;10.436;2023-02-15T12:30:57;18.10;;;10.00;;
16963;SDS011;8598;50.508;10.436;2023-02-15T12:33:26;16.57;;;10.47;;
16963;SDS011;8598;50.508;10.436;2023-02-15T12:35:56;17.10;;;10.80;;
16963;SDS011;8598;50.508;10.436;2023-02-15T12:38:27;20.27;;;11.17;;
16963;SDS011;8598;50.508;10.436;2023-02-15T12:40:59;22.50;;;12.00;;
16963;SDS011;8598;50.508;10.436;2023-02-15T12:43:27;21.67;;;12.40;;
16963;SDS011;8598;50.508;10.436;2023-02-15T12:46:12;22.30;;;12.37;;
16963;SDS011;8598;50.508;10.436;2023-02-15T12:48:44;16.93;;;9.37;;
16963;SDS011;8598;50.508;10.436;2023-02-15T12:51:13;21.93;;;12.20;;
16963;SDS011;8598;50.508;10.436;2023-02-15T12:53:41;26.67;;;12.77;;
16963;SDS011;8598;50.508;10.436;2023-02-15T12:56:10;21.37;;;12.37;;
16963;SDS011;8598;50.508;10.436;2023-02-15T12:58:37;27.70;;;12.90;;
16963;SDS011;8598;50.508;10.436;2023-02-15T13:01:11;23.87;;;12.23;;
16963;SDS011;8598;50.508;10.436;2023-02-15T13:03:51;26.37;;;13.33;;
16963;SDS011;8598;50.508;10.436;2023-02-15T13:06:22;21.93;;;11.43;;
16963;SDS011;8598;50.508;10.436;2023-02-15T13:08:50;23.10;;;12.23;;
16963;SDS011;8598;50.508;10.436;2023-02-15T13:11:21;25.73;;;12.90;;
16963;SDS011;8598;50.508;10.436;2023-02-15T13:13:52;25.80;;;13.77;;
16963;SDS011;8598;50.508;10.436;2023-02-15T13:16:23;23.53;;;11.80;;
16963;SDS011;8598;50.508;10.436;2023-02-15T13:18:54;21.23;;;10.80;;
16963;SDS011;8598;50.508;10.436;2023-02-15T13:21:26;24.57;;;12.30;;
16963;SDS011;8598;50.508;10.436;2023-02-15T13:23:57;22.13;;;11.60;;
16963;SDS011;8598;50.508;10.436;2023-02-15T13:26:29;22.33;;;11.23;;
16963;SDS011;8598;50.508;10.436;2023-02-15T13:28:58;25.00;;;11.43;;
16963;SDS011;8598;50.508;10.436;2023-02-15T13:31:33;21.77;;;12.10;;
16963;SDS011;8598;50.508;10.436;2023-02-15T13:34:02;21.63;;;12.27;;
16963;SDS011;8598;50.508;10.436;2023-02-15T13:36:37;22.53;;;12.10;;
16963;SDS011;8598;50.508;10.436;2023-02-15T13:39:13;20.13;;;11.97;;
16963;SDS011;8598;50.508;10.436;2023-02-15T13:41:53;28.17;;;13.17;;
16963;SDS011;8598;50.508;10.436;2023-02-15T13:44:27;27.57;;;13.60;;
16963;SDS011;8598;50.508;10.436;2023-02-15T13:47:12;25.10;;;13.07;;
16963;SDS011;8598;50.508;10.436;2023-02-15T13:49:50;59.80;;;23.73;;
16963;SDS011;8598;50.508;10.436;2023-02-15T13:52:29;34.77;;;18.13;;
16963;SDS011;8598;50.508;10.436;2023-02-15T13:55:13;34.73;;;17.07;;
16963;SDS011;8598;50.508;10.436;2023-02-15T13:57:55;31.90;;;16.50;;
16963;SDS011;8598;50.508;10.436;2023-02-15T14:00:47;26.77;;;13.37;;
16963;SDS011;8598;50.508;10.436;2023-02-15T14:03:25;30.07;;;16.87;;
16963;SDS011;8598;50.508;10.436;2023-02-15T14:06:20;29.47;;;14.03;;
16963;SDS011;8598;50.508;10.436;2023-02-15T14:09:16;28.30;;;13.90;;
16963;SDS011;8598;50.508;10.436;2023-02-15T14:11:54;25.17;;;12.73;;
16963;SDS011;8598;50.508;10.436;2023-02-15T14:14:49;30.40;;;14.37;;
16963;SDS011;8598;50.508;10.436;2023-02-15T14:17:36;28.33;;;15.63;;
16963;SDS011;8598;50.508;10.436;2023-02-15T14:20:15;26.77;;;14.17;;
16963;SDS011;8598;50.508;10.436;2023-02-15T14:22:48;29.00;;;14.37;;
16963;SDS011;8598;50.508;10.436;2023-02-15T14:25:24;30.63;;;13.97;;
16963;SDS011;8598;50.508;10.436;2023-02-15T14:27:56;25.47;;;13.80;;
16963;SDS011;8598;50.508;10.436;2023-02-15T14:30:32;23.17;;;12.07;;
16963;SDS011;8598;50.508;10.436;2023-02-15T14:33:04;25.83;;;13.17;;
16963;SDS011;8598;50.508;10.436;2023-02-15T14:35:33;24.67;;;13.37;;
16963;SDS011;8598;50.508;10.436;2023-02-15T14:38:02;30.23;;;16.33;;
16963;SDS011;8598;50.508;10.436;2023-02-15T14:40:39;28.57;;;16.60;;
16963;SDS011;8598;50.508;10.436;2023-02-15T14:43:32;26.53;;;13.70;;
16963;SDS011;8598;50.508;10.436;2023-02-15T14:46:12;29.13;;;15.00;;
16963;SDS011;8598;50.508;10.436;2023-02-15T14:48:48;27.23;;;15.00;;
16963;SDS011;8598;50.508;10.436;2023-02-15T14:57:22;26.93;;;12.97;;
16963;SDS011;8598;50.508;10.436;2023-02-15T14:59:55;29.90;;;14.70;;
16963;SDS011;8598;50.508;10.436;2023-02-15T15:02:25;25.53;;;12.67;;
16963;SDS011;8598;50.508;10.436;2023-02-15T15:05:03;24.40;;;12.83;;
16963;SDS011;8598;50.508;10.436;2023-02-15T15:07:38;29.20;;;13.33;;
16963;SDS011;8598;50.508;10.436;2023-02-15T15:16:24;34.03;;;16.17;;
16963;SDS011;8598;50.508;10.436;2023-02-15T15:19:10;24.20;;;13.47;;
16963;SDS011;8598;50.508;10.436;2023-02-15T15:21:54;34.90;;;14.80;;